Terminal Aerodrome Forecast
Issued by NWS Wichita, KS

Home | Current Version | Previous Version | Text Only | Print | Product List | Glossary On
Versions: 1 2 3 4 5 6 7 8 9 10 11 12 13 14 15 16 17 18 19 20
854
FTUS43 KICT 272340
TAFICT
TAF
KICT 272340Z 2800/2824 16017G25KT P6SM SCT070
     FM280300 16017G22KT P6SM SKC WS015/18045KT
     FM281500 19022G30KT P6SM SCT150 BKN300=

USA.gov is the U.S. government's official web portal to all federal, state and local government web resources and services.